Boca Raton, FL

11:25 PM EDT on July 23, 2016 (GMT -0400)
Spanish Village | | Change Station

Elev 13 ft 26.36 °N, 80.09 °W | Updated 55 seconds ago

Scattered Clouds
Scattered Clouds
80.0 °F
Feels Like 84 °F
N
6.0
Wind Variable Wind from WNW
Gusts 13.0 mph

Today
High -- | Low -- °F
--% Chance of Precip.
Yesterday
High -- | Low -- °F
Precip. -- in
Pressure 30.06 in
Visibility 10.0 miles
Clouds Scattered Clouds 2600 ft
Heat Index 84 °F
Dew Point 72 °F
Humidity 77%
Rainfall 0.02 in
Snow Depth Not available.
6:41 AM 8:12 PM
Waning Gibbous, 80% visible
METAR KPMP 240253Z AUTO VRB03KT 10SM SCT026 29/23 A3005 RMK AO2 LTG DSNT W AND NW TSB11E26 SLP177 T02890233 53011
Pressure 30.06 in
Visibility 10.0 miles
Clouds Scattered Clouds 2600 ft
Heat Index 84 °F
Dew Point 72 °F
Humidity 77%
Rainfall 0.02 in
Snow Depth Not available.
6:41 AM 8:12 PM
Waning Gibbous, 80% visible
METAR KPMP 240253Z AUTO VRB03KT 10SM SCT026 29/23 A3005 RMK AO2 LTG DSNT W AND NW TSB11E26 SLP177 T02890233 53011

10-Day Weather Forecast

Almanac

Astronomy

Jul. 23, 2016 Rise Set
Actual Time
Civil Twilight
Nautical Twilight
Astronomical Twilight
Moon
Length of Visible Light
Length of Day
Tomorrow will be .
, % of the Moon is Illuminated

Today's Extremes

State Highs State Lows

Community

WunderPhotos

Upload Photos

1,927,019 photos uploaded!

WunderBlog® & News

Nearby

Air Quality

  Air Quality AQ Index Pollutant
Not available.

Snow Depth

Station Depth Elevation

Earthquake Activity

City Distance Mag. Time & Date
Minimum magnitude displayed is 2.5.

Coastal Water Temperatures

Place Temperature

Stations

Nearby Weather Stations

Station Location Temp. Windchill Dew Point Humidity Wind Precip. Elev Updated Type
                   

Watches & Warnings

There are currently no watches in effect.